Fowler, New York
Current Conditions -  °F | °C
As of 5:58 PM on Wednesday 22 Oct 2014 (Local Time) from KGTB Reporting Station
Overcast Overcast  
Wind Chill: 41°   Ceiling: 2000
Heat Index: 47°   Visibility: 10mi
Dew Point: 39°   Wind: 14mph
Humidity: 73%   Direction: 40°NE
Pressure: 30.17"   Gusts: NA
Location:  44.3309°N, 75.4775°W
Report Text: KGTB 222158Z AUTO 04012KT 10SM OVC020 08/04 A3017 RMK AO2 SLP221 T00840039
Loading
Personal Weather Stations






























Interactive Weather Map
Tropical Storm Tracking
New forecast layout! Learn more

10-Day Weather Forecast

Advertisements
Track Severe Weather on mobile